createdAt,value
2022-08-30T00:00:35.147Z,99.90
2022-08-30T00:03:02.588Z,99.90
2022-08-30T00:05:30.321Z,99.90
2022-08-30T00:07:57.833Z,99.90
2022-08-30T00:10:25.743Z,99.90
2022-08-30T00:12:52.384Z,99.90
2022-08-30T00:15:20.320Z,99.90
2022-08-30T00:17:46.937Z,99.90
2022-08-30T00:20:18.136Z,99.90
2022-08-30T00:22:44.953Z,99.90
2022-08-30T00:25:12.497Z,99.90
2022-08-30T00:27:39.206Z,99.90
2022-08-30T00:30:07.062Z,99.90
2022-08-30T00:32:33.673Z,99.90
2022-08-30T00:35:00.319Z,99.90
2022-08-30T00:37:26.939Z,99.90
2022-08-30T00:39:53.553Z,99.90
2022-08-30T00:42:21.135Z,99.90
2022-08-30T00:44:48.502Z,99.90
2022-08-30T00:47:15.235Z,99.90
2022-08-30T00:49:46.312Z,99.90
2022-08-30T00:52:13.762Z,99.90
2022-08-30T00:54:43.256Z,99.90
2022-08-30T00:57:11.571Z,99.90
2022-08-30T00:59:38.980Z,99.90
2022-08-30T01:02:05.859Z,99.90
2022-08-30T01:04:33.850Z,99.90
2022-08-30T01:07:00.585Z,99.90
2022-08-30T01:09:27.421Z,99.90
2022-08-30T01:11:54.048Z,99.90
2022-08-30T01:14:20.859Z,99.90
2022-08-30T01:16:48.057Z,99.90
2022-08-30T01:19:56.782Z,99.90
2022-08-30T01:22:36.383Z,99.90
2022-08-30T01:25:04.856Z,99.90
2022-08-30T01:27:38.178Z,99.90
2022-08-30T01:30:06.119Z,99.90
2022-08-30T01:32:39.702Z,99.90
2022-08-30T01:35:06.733Z,99.90
2022-08-30T01:37:35.122Z,99.90
2022-08-30T01:40:02.114Z,99.90
2022-08-30T01:42:28.922Z,99.90
2022-08-30T01:44:55.660Z,99.90
2022-08-30T01:47:22.270Z,99.90
2022-08-30T01:49:48.943Z,99.90
2022-08-30T01:52:17.528Z,99.90
2022-08-30T01:54:44.987Z,99.90
2022-08-30T01:57:15.404Z,99.90
2022-08-30T01:59:43.808Z,99.90
2022-08-30T02:02:10.483Z,99.90
2022-08-30T02:04:37.109Z,99.90
2022-08-30T02:07:04.788Z,99.90
2022-08-30T02:09:31.422Z,99.90
2022-08-30T02:11:58.010Z,99.90
2022-08-30T02:14:25.070Z,99.90
2022-08-30T02:16:51.790Z,99.90
2022-08-30T02:19:18.463Z,99.90
2022-08-30T02:21:45.066Z,99.90
2022-08-30T02:24:11.751Z,99.90
2022-08-30T02:26:38.341Z,99.90
2022-08-30T02:29:05.891Z,99.90
2022-08-30T02:31:32.535Z,99.90
2022-08-30T02:33:59.147Z,99.90
2022-08-30T02:36:25.822Z,99.90
2022-08-30T02:38:52.855Z,99.90
2022-08-30T02:41:20.308Z,99.90
2022-08-30T02:43:47.135Z,99.90
2022-08-30T02:46:14.539Z,99.90
2022-08-30T02:48:41.247Z,99.90
2022-08-30T02:51:11.525Z,99.90
2022-08-30T02:53:39.393Z,99.90
2022-08-30T02:56:06.116Z,99.90
2022-08-30T02:58:32.726Z,99.90
2022-08-30T03:00:59.395Z,99.90
2022-08-30T03:03:26.153Z,99.90
2022-08-30T03:05:52.805Z,99.90
2022-08-30T03:08:19.413Z,99.90
2022-08-30T03:10:45.996Z,99.90
2022-08-30T03:13:12.641Z,99.90
2022-08-30T03:15:39.470Z,99.90
2022-08-30T03:18:06.414Z,99.90
2022-08-30T03:20:33.427Z,99.90
2022-08-30T03:23:00.080Z,99.90
2022-08-30T03:25:27.175Z,99.90
2022-08-30T03:27:53.813Z,99.90
2022-08-30T03:30:21.176Z,99.90
2022-08-30T03:32:48.827Z,99.90
2022-08-30T03:35:18.566Z,99.90
2022-08-30T03:37:46.083Z,99.90
2022-08-30T03:40:14.752Z,99.90
2022-08-30T03:42:43.367Z,99.90
2022-08-30T03:45:11.900Z,99.90
2022-08-30T03:47:38.555Z,99.90
2022-08-30T03:50:09.107Z,99.90
2022-08-30T03:52:35.755Z,99.90
2022-08-30T03:55:02.371Z,99.90
2022-08-30T03:57:29.332Z,99.90
2022-08-30T03:59:55.979Z,99.90
2022-08-30T04:02:22.818Z,99.90
2022-08-30T04:04:49.786Z,99.90
2022-08-30T04:07:16.802Z,99.90
2022-08-30T04:09:43.399Z,99.90
2022-08-30T04:12:10.003Z,99.90
2022-08-30T04:14:36.600Z,99.90
2022-08-30T04:17:03.321Z,99.90
2022-08-30T04:19:29.923Z,99.90
2022-08-30T04:21:56.531Z,99.90
2022-08-30T04:24:23.440Z,99.90
2022-08-30T04:26:50.062Z,99.90
2022-08-30T04:29:16.658Z,99.90
2022-08-30T04:31:43.949Z,99.90
2022-08-30T04:34:12.395Z,99.90
2022-08-30T04:36:39.183Z,99.90
2022-08-30T04:39:06.869Z,99.90
2022-08-30T04:41:33.942Z,99.90
2022-08-30T04:44:02.615Z,99.90
2022-08-30T04:46:29.981Z,99.90
2022-08-30T04:48:56.770Z,99.90
2022-08-30T04:51:23.450Z,99.90
2022-08-30T04:53:50.043Z,99.90
2022-08-30T04:56:19.650Z,99.90
2022-08-30T04:58:47.267Z,99.90
2022-08-30T05:01:18.791Z,99.90
2022-08-30T05:03:47.557Z,99.90
2022-08-30T05:06:14.839Z,99.90
2022-08-30T05:08:41.466Z,99.90
2022-08-30T05:11:14.217Z,99.90
2022-08-30T05:13:40.809Z,99.90
2022-08-30T05:16:08.372Z,99.90
2022-08-30T05:18:36.407Z,99.90
2022-08-30T05:21:14.930Z,99.90
2022-08-30T05:23:42.307Z,99.90
2022-08-30T05:26:12.359Z,99.90
2022-08-30T05:28:39.580Z,99.90
2022-08-30T05:31:19.151Z,99.90
2022-08-30T05:33:46.509Z,99.90
2022-08-30T05:36:15.051Z,99.90
2022-08-30T05:38:42.290Z,99.90
2022-08-30T05:41:10.743Z,99.90
2022-08-30T05:43:38.163Z,99.90
2022-08-30T05:46:11.224Z,99.90
2022-08-30T05:48:38.684Z,99.90
2022-08-30T05:51:11.063Z,99.90
2022-08-30T05:53:38.935Z,99.90
2022-08-30T05:56:09.110Z,99.90
2022-08-30T05:58:36.383Z,99.90
2022-08-30T06:01:03.994Z,99.90
2022-08-30T06:03:30.763Z,99.90
2022-08-30T06:05:57.400Z,99.90
2022-08-30T06:08:23.998Z,99.90
2022-08-30T06:10:50.841Z,99.90
2022-08-30T06:13:17.583Z,99.90
2022-08-30T06:15:44.398Z,99.90
2022-08-30T06:18:13.205Z,99.90
2022-08-30T06:20:44.957Z,99.90
2022-08-30T06:23:11.575Z,99.90
2022-08-30T06:25:41.321Z,99.90
2022-08-30T06:28:09.122Z,99.90
2022-08-30T06:30:36.126Z,99.90
2022-08-30T06:33:02.805Z,99.90
2022-08-30T06:35:32.693Z,99.90
2022-08-30T06:38:02.399Z,99.90
2022-08-30T06:40:29.183Z,99.90
2022-08-30T06:42:56.108Z,99.90
2022-08-30T06:45:22.732Z,99.90
2022-08-30T06:47:49.454Z,99.90
2022-08-30T06:50:17.551Z,99.90
2022-08-30T06:52:45.385Z,99.90
2022-08-30T06:55:16.497Z,99.90
2022-08-30T06:57:43.575Z,99.90
2022-08-30T07:00:13.188Z,99.90
2022-08-30T07:02:40.312Z,99.90
2022-08-30T07:05:08.094Z,99.90
2022-08-30T07:07:35.370Z,99.90
2022-08-30T07:10:04.299Z,99.90
2022-08-30T07:12:30.907Z,99.90
2022-08-30T07:14:57.786Z,99.90
2022-08-30T07:17:24.418Z,99.90
2022-08-30T07:19:51.093Z,99.90
2022-08-30T07:22:17.729Z,99.90
2022-08-30T07:24:44.377Z,99.90
2022-08-30T07:27:11.031Z,99.90
2022-08-30T07:29:37.711Z,99.90
2022-08-30T07:32:04.920Z,99.90
2022-08-30T07:34:31.563Z,99.90
2022-08-30T07:36:58.274Z,99.90
2022-08-30T07:39:24.936Z,99.90
2022-08-30T07:41:51.622Z,99.90
2022-08-30T07:44:18.253Z,99.90
2022-08-30T07:46:44.969Z,99.90
2022-08-30T07:49:12.175Z,99.90
2022-08-30T07:51:40.392Z,99.90
2022-08-30T07:54:07.473Z,99.90
2022-08-30T07:56:34.497Z,99.90
2022-08-30T07:59:01.070Z,99.90
2022-08-30T08:01:27.761Z,99.90
2022-08-30T08:03:54.395Z,99.90
2022-08-30T08:06:22.456Z,99.90
2022-08-30T08:08:49.892Z,99.90
2022-08-30T08:11:24.919Z,99.90
2022-08-30T08:13:54.322Z,99.90
2022-08-30T08:16:23.116Z,99.90
2022-08-30T08:18:49.815Z,99.90
2022-08-30T08:21:16.821Z,99.90
2022-08-30T08:23:43.745Z,99.90
2022-08-30T08:26:10.413Z,99.90
2022-08-30T08:28:37.055Z,99.90
2022-08-30T08:31:03.842Z,99.90
2022-08-30T08:33:30.532Z,99.90
2022-08-30T08:35:57.127Z,99.90
2022-08-30T08:38:23.835Z,99.90
2022-08-30T08:41:06.074Z,99.90
2022-08-30T08:43:36.780Z,99.90
2022-08-30T08:46:26.088Z,99.90
2022-08-30T08:49:01.495Z,99.90
2022-08-30T08:51:30.578Z,99.90
2022-08-30T08:54:21.071Z,99.90
2022-08-30T08:56:47.825Z,99.90
2022-08-30T08:59:15.665Z,99.90
2022-08-30T09:01:46.392Z,99.90
2022-08-30T09:04:17.212Z,99.90
2022-08-30T09:07:30.286Z,99.90
2022-08-30T09:09:58.527Z,99.90
2022-08-30T09:12:25.119Z,99.90
2022-08-30T09:15:01.314Z,99.90
2022-08-30T09:17:28.605Z,99.90
2022-08-30T09:19:55.719Z,99.90
2022-08-30T09:22:28.528Z,99.90
2022-08-30T09:25:06.521Z,99.90
2022-08-30T09:27:39.783Z,99.90
2022-08-30T09:30:27.398Z,99.90
2022-08-30T09:33:02.831Z,99.90
2022-08-30T09:35:34.823Z,99.90
2022-08-30T09:38:16.734Z,99.90
2022-08-30T09:40:53.117Z,99.90
2022-08-30T09:43:25.687Z,99.90
2022-08-30T09:46:01.613Z,99.90
2022-08-30T09:48:43.071Z,99.90
2022-08-30T09:51:10.539Z,99.90
2022-08-30T09:54:16.743Z,99.90
2022-08-30T09:57:04.570Z,99.90
2022-08-30T10:00:04.741Z,99.90
2022-08-30T10:02:41.524Z,99.90
2022-08-30T10:05:47.111Z,99.90
2022-08-30T10:08:51.056Z,99.90
2022-08-30T10:11:33.029Z,99.90
2022-08-30T10:14:24.566Z,99.90
2022-08-30T10:17:06.699Z,99.90
2022-08-30T10:20:01.164Z,99.90
2022-08-30T10:22:36.907Z,99.90
2022-08-30T10:25:31.884Z,99.90
2022-08-30T10:28:09.442Z,99.90
2022-08-30T10:30:42.198Z,99.90
2022-08-30T10:33:17.270Z,99.90
2022-08-30T10:35:47.933Z,99.90
2022-08-30T10:38:27.759Z,98.90
2022-08-30T10:41:03.329Z,98.70
2022-08-30T10:43:46.070Z,99.90
2022-08-30T10:46:51.999Z,99.10
2022-08-30T10:49:22.693Z,98.80
2022-08-30T10:52:00.838Z,97.20
2022-08-30T10:54:35.150Z,99.50
2022-08-30T10:57:01.800Z,97.10
2022-08-30T10:59:28.903Z,96.50
2022-08-30T11:02:29.127Z,95.70
2022-08-30T11:05:16.929Z,96.90
2022-08-30T11:08:28.272Z,98.10
2022-08-30T11:11:13.987Z,95.80
2022-08-30T11:13:41.868Z,95.30
2022-08-30T11:16:12.939Z,96.40
2022-08-30T11:18:52.356Z,96.00
2022-08-30T11:21:36.196Z,93.30
2022-08-30T11:24:10.847Z,92.40
2022-08-30T11:26:47.254Z,93.20
2022-08-30T11:29:34.564Z,91.00
2022-08-30T11:32:13.521Z,90.50
2022-08-30T11:34:46.422Z,92.20
2022-08-30T11:37:34.427Z,92.50
2022-08-30T11:40:06.207Z,92.70
2022-08-30T11:42:42.172Z,91.40
2022-08-30T11:45:40.971Z,89.70
2022-08-30T11:48:28.647Z,88.90
2022-08-30T11:51:10.855Z,90.40
2022-08-30T11:53:54.691Z,90.50
2022-08-30T11:56:48.262Z,86.70
2022-08-30T11:59:34.485Z,86.70
2022-08-30T12:02:01.357Z,90.10
2022-08-30T12:04:45.650Z,84.60
2022-08-30T12:07:51.063Z,83.40
2022-08-30T12:10:47.231Z,86.20
2022-08-30T12:13:35.597Z,89.30
2022-08-30T12:16:04.928Z,86.00
2022-08-30T12:18:37.376Z,82.30
2022-08-30T12:21:14.534Z,86.90
2022-08-30T12:24:04.686Z,89.50
2022-08-30T12:26:41.248Z,85.60
2022-08-30T12:29:20.852Z,84.60
2022-08-30T12:31:52.989Z,85.50
2022-08-30T12:34:30.559Z,87.10
2022-08-30T12:37:04.505Z,82.00
2022-08-30T12:39:43.551Z,81.90
2022-08-30T12:42:11.599Z,80.10
2022-08-30T12:44:44.939Z,85.90
2022-08-30T12:47:13.111Z,83.20
2022-08-30T12:49:41.963Z,80.20
2022-08-30T12:52:26.619Z,80.80
2022-08-30T12:54:55.823Z,79.20
2022-08-30T12:57:37.711Z,81.60
2022-08-30T13:00:10.865Z,83.10
2022-08-30T13:02:49.933Z,82.00
2022-08-30T13:05:45.567Z,79.50
2022-08-30T13:08:32.725Z,83.20
2022-08-30T13:11:38.193Z,81.30
2022-08-30T13:14:37.199Z,81.30
2022-08-30T13:17:09.363Z,80.70
2022-08-30T13:19:39.235Z,81.00
2022-08-30T13:22:29.127Z,81.90
2022-08-30T13:24:56.092Z,80.90
2022-08-30T13:27:23.803Z,80.70
2022-08-30T13:29:51.154Z,81.30
2022-08-30T13:32:18.594Z,78.90
2022-08-30T13:34:45.577Z,75.90
2022-08-30T13:40:05.005Z,79.90
2022-08-30T13:42:32.291Z,81.00
2022-08-30T13:44:59.259Z,80.40
2022-08-30T13:47:34.820Z,83.00
2022-08-30T13:50:02.247Z,79.10
2022-08-30T13:52:28.995Z,81.90
2022-08-30T13:54:57.815Z,80.70
2022-08-30T14:00:17.147Z,80.10
2022-08-30T14:02:49.036Z,79.80
2022-08-30T14:08:44.307Z,80.50
2022-08-30T14:10:55.834Z,81.00
2022-08-30T14:13:22.641Z,81.10
2022-08-30T14:16:26.630Z,79.10
2022-08-30T14:18:38.456Z,81.60
2022-08-30T14:21:05.179Z,81.00
2022-08-30T14:23:32.278Z,80.70
2022-08-30T14:26:00.240Z,81.00
2022-08-30T14:28:27.246Z,79.90
2022-08-30T14:30:54.133Z,82.90
2022-08-30T14:33:20.737Z,84.70
2022-08-30T14:35:47.377Z,80.80
2022-08-30T14:38:14.012Z,79.10
2022-08-30T14:40:40.695Z,80.50
2022-08-30T14:43:07.385Z,83.50
2022-08-30T14:45:34.014Z,84.10
2022-08-30T14:48:00.628Z,81.20
2022-08-30T14:50:27.933Z,82.70
2022-08-30T14:52:54.655Z,80.20
2022-08-30T14:55:21.375Z,82.30
2022-08-30T14:57:47.968Z,84.00
2022-08-30T15:00:15.691Z,86.10
2022-08-30T15:02:43.269Z,83.80
2022-08-30T15:05:09.965Z,84.30
2022-08-30T15:07:36.867Z,83.20
2022-08-30T15:10:05.468Z,82.90
2022-08-30T15:12:32.126Z,82.50
2022-08-30T15:14:58.805Z,81.50
2022-08-30T15:17:25.597Z,80.70
2022-08-30T15:19:52.375Z,83.00
2022-08-30T15:22:19.251Z,85.40
2022-08-30T15:24:49.057Z,83.30
2022-08-30T15:27:17.533Z,82.80
2022-08-30T15:29:44.121Z,83.90
2022-08-30T15:32:10.916Z,82.10
2022-08-30T15:34:37.534Z,83.50
2022-08-30T15:37:04.191Z,84.30
2022-08-30T15:39:31.933Z,81.80
2022-08-30T15:42:01.017Z,82.70
2022-08-30T15:44:29.185Z,85.20
2022-08-30T15:46:55.885Z,85.80
2022-08-30T15:49:24.429Z,85.20
2022-08-30T15:51:54.499Z,84.90
2022-08-30T15:54:23.486Z,85.00
2022-08-30T15:56:50.398Z,82.80
2022-08-30T15:59:17.043Z,82.90
2022-08-30T16:01:45.416Z,81.00
2022-08-30T16:04:15.587Z,81.50
2022-08-30T16:06:42.361Z,83.60
2022-08-30T16:09:10.247Z,81.80
2022-08-30T16:11:37.991Z,80.00
2022-08-30T16:14:06.200Z,79.50
2022-08-30T16:16:33.569Z,80.40
2022-08-30T16:19:01.579Z,80.10
2022-08-30T16:21:30.910Z,81.20
2022-08-30T16:23:59.971Z,81.70
2022-08-30T16:26:28.590Z,81.80
2022-08-30T16:28:55.889Z,79.90
2022-08-30T16:31:24.316Z,79.90
2022-08-30T16:33:53.070Z,81.10
2022-08-30T16:36:20.593Z,81.50
2022-08-30T16:38:48.475Z,83.70
2022-08-30T16:41:21.074Z,86.10
2022-08-30T16:43:49.763Z,87.00
2022-08-30T16:46:27.409Z,87.10
2022-08-30T16:48:57.584Z,87.30
2022-08-30T16:51:27.378Z,87.60
2022-08-30T16:53:59.029Z,87.30
2022-08-30T16:56:27.666Z,88.70
2022-08-30T16:59:01.272Z,88.80
2022-08-30T17:01:34.998Z,89.70
2022-08-30T17:04:02.649Z,90.00
2022-08-30T17:06:29.417Z,90.50
2022-08-30T17:08:56.937Z,91.10
2022-08-30T17:11:24.438Z,91.60
2022-08-30T17:13:51.186Z,91.60
2022-08-30T17:16:22.524Z,92.10
2022-08-30T17:18:55.585Z,91.60
2022-08-30T17:21:22.375Z,91.80
2022-08-30T17:23:49.987Z,92.70
2022-08-30T17:26:17.237Z,93.50
2022-08-30T17:28:44.170Z,93.30
2022-08-30T17:31:11.011Z,94.30
2022-08-30T17:33:37.852Z,94.60
2022-08-30T17:36:08.811Z,94.80
2022-08-30T17:38:35.658Z,95.00
2022-08-30T17:41:09.245Z,94.60
2022-08-30T17:43:37.147Z,93.70
2022-08-30T17:46:05.107Z,93.70
2022-08-30T17:48:31.825Z,94.40
2022-08-30T17:50:58.564Z,93.90
2022-08-30T17:53:25.475Z,94.00
2022-08-30T17:55:52.083Z,94.30
2022-08-30T17:58:18.818Z,94.60
2022-08-30T18:00:48.539Z,95.30
2022-08-30T18:03:17.645Z,95.40
2022-08-30T18:05:44.312Z,96.10
2022-08-30T18:08:13.962Z,96.40
2022-08-30T18:10:40.712Z,96.90
2022-08-30T18:13:07.299Z,97.50
2022-08-30T18:15:34.042Z,98.40
2022-08-30T18:18:00.739Z,99.40
2022-08-30T18:20:27.681Z,99.60
2022-08-30T18:22:58.060Z,99.90
2022-08-30T18:25:24.670Z,99.90
2022-08-30T18:27:58.094Z,99.90
2022-08-30T18:30:31.220Z,99.90
2022-08-30T18:33:00.701Z,99.90
2022-08-30T18:35:27.490Z,99.90
2022-08-30T18:37:54.366Z,99.90
2022-08-30T18:40:21.095Z,99.90
2022-08-30T18:42:47.825Z,99.90
2022-08-30T18:45:15.666Z,99.90
2022-08-30T18:47:42.855Z,99.90
2022-08-30T18:50:09.638Z,99.90
2022-08-30T18:52:36.258Z,99.90
2022-08-30T18:55:02.923Z,99.90
2022-08-30T18:57:32.853Z,99.90
2022-08-30T18:59:59.482Z,99.90
2022-08-30T19:02:27.719Z,99.90
2022-08-30T19:04:54.928Z,99.90
2022-08-30T19:07:22.514Z,99.90
2022-08-30T19:09:55.702Z,99.90
2022-08-30T19:12:25.857Z,99.90
2022-08-30T19:14:54.238Z,99.90
2022-08-30T19:17:22.915Z,99.90
2022-08-30T19:19:52.339Z,99.90
2022-08-30T19:22:21.494Z,99.90
2022-08-30T19:24:49.843Z,99.90
2022-08-30T19:27:18.962Z,99.90
2022-08-30T19:29:53.113Z,99.90
2022-08-30T19:32:20.875Z,99.90
2022-08-30T19:34:47.515Z,99.90
2022-08-30T19:40:01.046Z,99.90
2022-08-30T19:42:27.806Z,99.90
2022-08-30T19:44:54.647Z,99.90
2022-08-30T19:47:21.268Z,99.90
2022-08-30T19:49:47.933Z,99.90
2022-08-30T19:52:14.906Z,99.90
2022-08-30T19:54:41.507Z,99.90
2022-08-30T19:57:08.215Z,99.90
2022-08-30T19:59:34.830Z,99.90
2022-08-30T20:02:02.820Z,99.90
2022-08-30T20:04:29.528Z,99.90
2022-08-30T20:06:56.154Z,99.90
2022-08-30T20:09:23.554Z,99.90
2022-08-30T20:11:55.048Z,99.90
2022-08-30T20:14:21.974Z,99.90
2022-08-30T20:16:48.591Z,99.90
2022-08-30T20:19:15.419Z,99.90
2022-08-30T20:21:42.044Z,99.90
2022-08-30T20:24:09.577Z,99.90
2022-08-30T20:26:37.401Z,99.90
2022-08-30T20:29:05.106Z,99.90
2022-08-30T20:31:31.896Z,99.90
2022-08-30T20:33:58.593Z,99.90
2022-08-30T20:36:25.362Z,99.90
2022-08-30T20:38:52.087Z,99.90
2022-08-30T20:41:19.447Z,99.90
2022-08-30T20:43:46.763Z,99.90
2022-08-30T20:46:16.702Z,99.90
2022-08-30T20:48:44.282Z,99.90
2022-08-30T20:51:16.126Z,99.90
2022-08-30T20:53:43.462Z,99.90
2022-08-30T20:56:19.113Z,99.90
2022-08-30T20:58:46.114Z,99.90
2022-08-30T21:01:13.812Z,99.90
2022-08-30T21:03:40.773Z,99.90
2022-08-30T21:06:07.671Z,99.90
2022-08-30T21:08:34.435Z,99.90
2022-08-30T21:11:01.076Z,99.90
2022-08-30T21:13:27.727Z,99.90
2022-08-30T21:15:56.158Z,99.90
2022-08-30T21:18:28.166Z,99.90
2022-08-30T21:20:55.742Z,99.90
2022-08-30T21:23:23.173Z,99.90
2022-08-30T21:25:49.810Z,99.90
2022-08-30T21:28:17.236Z,99.90
2022-08-30T21:30:44.573Z,99.90
2022-08-30T21:33:11.185Z,99.90
2022-08-30T21:35:37.799Z,99.90
2022-08-30T21:38:04.387Z,99.90
2022-08-30T21:40:31.045Z,99.90
2022-08-30T21:43:00.418Z,99.90
2022-08-30T21:45:29.131Z,99.90
2022-08-30T21:47:55.741Z,99.90
2022-08-30T21:50:22.333Z,99.90
2022-08-30T21:52:48.919Z,99.90
2022-08-30T21:55:15.615Z,99.90
2022-08-30T21:57:42.234Z,99.90
2022-08-30T22:00:09.711Z,99.90
2022-08-30T22:02:36.370Z,99.90
2022-08-30T22:05:03.211Z,99.90
2022-08-30T22:07:29.827Z,99.90
2022-08-30T22:09:56.450Z,99.90
2022-08-30T22:12:23.058Z,99.90
2022-08-30T22:14:52.571Z,99.90
2022-08-30T22:17:19.151Z,99.90
2022-08-30T22:19:45.796Z,99.90
2022-08-30T22:22:12.516Z,99.90
2022-08-30T22:24:39.114Z,99.90
2022-08-30T22:27:06.285Z,99.90
2022-08-30T22:29:33.174Z,99.90
2022-08-30T22:32:00.191Z,99.90
2022-08-30T22:34:27.429Z,99.90
2022-08-30T22:36:54.113Z,99.90
2022-08-30T22:39:20.722Z,99.90
2022-08-30T22:41:47.354Z,99.90
2022-08-30T22:44:14.002Z,99.90
2022-08-30T22:46:40.801Z,99.90
2022-08-30T22:49:09.220Z,99.90
2022-08-30T22:51:36.747Z,99.90
2022-08-30T22:54:05.458Z,99.90
2022-08-30T22:56:34.026Z,99.90
2022-08-30T22:59:00.697Z,99.90
2022-08-30T23:01:36.355Z,99.90
2022-08-30T23:04:04.553Z,99.90
2022-08-30T23:06:31.384Z,99.90
2022-08-30T23:08:58.112Z,99.90
2022-08-30T23:11:25.139Z,99.90
2022-08-30T23:13:52.220Z,99.90
2022-08-30T23:16:19.470Z,99.90
2022-08-30T23:18:46.483Z,99.90
2022-08-30T23:21:19.882Z,99.90
2022-08-30T23:23:46.597Z,99.90
2022-08-30T23:26:13.185Z,99.90
2022-08-30T23:28:39.785Z,99.90
2022-08-30T23:31:11.696Z,99.90
2022-08-30T23:33:38.303Z,99.90
2022-08-30T23:36:10.192Z,99.90
2022-08-30T23:38:36.958Z,99.90
2022-08-30T23:41:03.598Z,99.90
2022-08-30T23:43:30.211Z,99.90
2022-08-30T23:45:56.931Z,99.90
2022-08-30T23:48:23.558Z,99.90
2022-08-30T23:50:50.160Z,99.90
2022-08-30T23:53:16.866Z,99.90
2022-08-30T23:55:43.603Z,99.90
2022-08-30T23:58:10.227Z,99.90
